Time;durP1;ratioP1;P1;durP2;ratioP2;P2;SDS_P1;SDS_P2;PMS_P1;PMS_P2;Temp;Humidity;BMP_temperature;BMP_pressure;BME280_temperature;BME280_humidity;BME280_pressure;Samples;Min_cycle;Max_cycle;Signal;HPM_P1;HPM_P2
2022/01/31 00:01:13;;;;;;;;;;;21.50;32.80;;;;;;465374;256;1171;-40
2022/01/31 00:03:14;;;;;;;;;;;21.50;32.80;;;;;;465416;255;1036;-40
2022/01/31 00:05:15;;;;;;;;;;;21.40;32.70;;;;;;465815;255;2197;-40
2022/01/31 00:07:17;;;;;;;;;;;21.40;32.80;;;;;;465465;255;1223;-40
2022/01/31 00:09:18;;;;;;;;;;;21.40;32.80;;;;;;465440;256;1262;-40
2022/01/31 00:11:19;;;;;;;;;;;21.40;32.90;;;;;;465468;256;1659;-40
2022/01/31 00:13:25;;;;;;;;;;;21.40;32.90;;;;;;465561;256;1081;-40
2022/01/31 00:15:22;;;;;;;;;;;21.40;32.90;;;;;;465198;256;2864;-40
2022/01/31 00:17:23;;;;;;;;;;;21.40;32.90;;;;;;465310;256;1201;-40
2022/01/31 00:19:25;;;;;;;;;;;21.40;32.90;;;;;;465562;256;1054;-40
2022/01/31 00:21:26;;;;;;;;;;;21.40;32.90;;;;;;465474;255;1247;-40
2022/01/31 00:23:27;;;;;;;;;;;21.40;32.90;;;;;;465430;256;1082;-40
2022/01/31 00:25:29;;;;;;;;;;;21.40;32.90;;;;;;465439;256;2114;-40
2022/01/31 00:27:30;;;;;;;;;;;21.30;32.90;;;;;;465467;255;1270;-40
2022/01/31 00:29:31;;;;;;;;;;;21.30;32.90;;;;;;465497;256;1214;-40
2022/01/31 00:31:33;;;;;;;;;;;21.30;32.90;;;;;;465420;256;1198;-40
2022/01/31 00:33:34;;;;;;;;;;;21.30;32.90;;;;;;465463;255;1089;-40
2022/01/31 00:35:35;;;;;;;;;;;21.30;32.90;;;;;;465429;255;1087;-40
2022/01/31 00:37:37;;;;;;;;;;;21.30;32.90;;;;;;465407;256;1167;-40
2022/01/31 00:39:38;;;;;;;;;;;21.30;32.90;;;;;;465469;256;1232;-40
2022/01/31 00:41:39;;;;;;;;;;;21.30;32.90;;;;;;465409;255;1212;-40
2022/01/31 00:43:43;;;;;;;;;;;21.30;32.90;;;;;;465532;256;1061;-40
2022/01/31 00:45:46;;;;;;;;;;;21.30;32.90;;;;;;465315;256;2289;-40
2022/01/31 00:47:48;;;;;;;;;;;21.30;32.90;;;;;;465318;256;2737;-40
2022/01/31 00:49:51;;;;;;;;;;;21.30;32.90;;;;;;465328;256;1787;-40
2022/01/31 00:51:52;;;;;;;;;;;21.30;32.80;;;;;;465344;256;2571;-40
2022/01/31 00:53:53;;;;;;;;;;;21.30;32.80;;;;;;465540;256;1047;-40
2022/01/31 00:55:55;;;;;;;;;;;21.30;32.90;;;;;;465462;256;1542;-40
2022/01/31 00:57:56;;;;;;;;;;;21.30;32.90;;;;;;465796;256;1250;-40
2022/01/31 00:59:57;;;;;;;;;;;21.30;32.90;;;;;;465609;256;1242;-40
2022/01/31 01:01:59;;;;;;;;;;;21.30;32.90;;;;;;465560;256;1269;-40
2022/01/31 01:04:00;;;;;;;;;;;21.30;32.90;;;;;;465619;256;1056;-40
2022/01/31 01:06:01;;;;;;;;;;;21.30;32.90;;;;;;465676;255;2226;-40
2022/01/31 01:08:03;;;;;;;;;;;21.30;32.90;;;;;;465767;256;1201;-40
2022/01/31 01:10:04;;;;;;;;;;;21.30;32.90;;;;;;465672;256;1115;-40
2022/01/31 01:12:05;;;;;;;;;;;21.30;32.90;;;;;;465382;256;1249;-40
2022/01/31 01:14:06;;;;;;;;;;;21.20;32.90;;;;;;465454;256;1157;-40
2022/01/31 01:16:08;;;;;;;;;;;21.20;32.90;;;;;;465792;256;1338;-40
2022/01/31 01:18:09;;;;;;;;;;;21.20;32.90;;;;;;465859;256;1131;-40
2022/01/31 01:20:10;;;;;;;;;;;21.30;32.90;;;;;;465838;256;1038;-40
2022/01/31 01:22:12;;;;;;;;;;;21.30;32.80;;;;;;465530;255;1266;-40
2022/01/31 01:24:14;;;;;;;;;;;21.30;32.80;;;;;;465871;256;1043;-40
2022/01/31 01:26:15;;;;;;;;;;;21.30;32.80;;;;;;465502;255;2191;-40
2022/01/31 01:28:17;;;;;;;;;;;21.30;32.80;;;;;;465448;256;1184;-40
2022/01/31 01:30:18;;;;;;;;;;;21.30;32.80;;;;;;465477;256;1215;-40
2022/01/31 01:32:19;;;;;;;;;;;21.30;32.80;;;;;;465544;256;1256;-40
2022/01/31 01:34:22;;;;;;;;;;;21.30;32.80;;;;;;465508;256;1055;-40
2022/01/31 01:36:22;;;;;;;;;;;21.30;32.80;;;;;;465352;255;2590;-40
2022/01/31 01:38:28;;;;;;;;;;;21.20;32.80;;;;;;465419;256;1227;-40
2022/01/31 01:40:26;;;;;;;;;;;21.30;32.80;;;;;;465203;256;2176;-40
2022/01/31 01:42:28;;;;;;;;;;;21.30;32.80;;;;;;465409;256;1279;-40
2022/01/31 01:44:29;;;;;;;;;;;21.30;32.80;;;;;;465443;256;1321;-40
2022/01/31 01:46:30;;;;;;;;;;;21.30;32.80;;;;;;465657;256;2115;-40
2022/01/31 01:48:32;;;;;;;;;;;21.30;32.70;;;;;;465407;256;1229;-40
2022/01/31 01:50:33;;;;;;;;;;;21.30;32.70;;;;;;465374;256;1100;-40
2022/01/31 01:52:34;;;;;;;;;;;21.30;32.70;;;;;;465362;255;1118;-40
2022/01/31 01:54:36;;;;;;;;;;;21.30;32.70;;;;;;465846;256;1215;-40
2022/01/31 01:56:37;;;;;;;;;;;21.30;32.70;;;;;;465357;253;1342;-40
2022/01/31 01:58:40;;;;;;;;;;;21.30;32.80;;;;;;465830;256;1101;-40
2022/01/31 02:00:49;;;;;;;;;;;21.30;32.80;;;;;;465496;256;2330;-40
2022/01/31 02:02:45;;;;;;;;;;;21.30;32.80;;;;;;465041;256;2184;-40
2022/01/31 02:04:46;;;;;;;;;;;21.30;32.80;;;;;;465660;256;1093;-40
2022/01/31 02:06:48;;;;;;;;;;;21.20;32.70;;;;;;465504;256;2143;-40
2022/01/31 02:08:49;;;;;;;;;;;21.20;32.80;;;;;;465432;256;1260;-40
2022/01/31 02:10:50;;;;;;;;;;;21.20;32.80;;;;;;465574;256;1171;-40
2022/01/31 02:12:52;;;;;;;;;;;21.30;32.80;;;;;;465484;256;1241;-40
2022/01/31 02:14:53;;;;;;;;;;;21.30;32.80;;;;;;465445;256;1310;-40
2022/01/31 02:16:54;;;;;;;;;;;21.30;32.70;;;;;;465807;256;1221;-40
2022/01/31 02:18:56;;;;;;;;;;;21.30;32.70;;;;;;465563;256;1233;-40
2022/01/31 02:20:57;;;;;;;;;;;21.30;32.70;;;;;;465669;256;1253;-40
2022/01/31 02:22:58;;;;;;;;;;;21.30;32.80;;;;;;465405;256;1265;-40
2022/01/31 02:24:59;;;;;;;;;;;21.20;32.70;;;;;;465425;256;1284;-40
2022/01/31 02:27:01;;;;;;;;;;;21.30;32.80;;;;;;465580;255;2209;-40
2022/01/31 02:29:02;;;;;;;;;;;21.30;32.70;;;;;;465429;256;1291;-40
2022/01/31 02:31:03;;;;;;;;;;;21.30;32.70;;;;;;465511;256;1671;-40
2022/01/31 02:33:05;;;;;;;;;;;21.30;32.70;;;;;;465799;256;1086;-40
2022/01/31 02:35:06;;;;;;;;;;;21.30;32.70;;;;;;465392;255;1093;-40
2022/01/31 02:37:10;;;;;;;;;;;21.20;32.80;;;;;;465353;256;1253;-40
2022/01/31 02:39:09;;;;;;;;;;;21.20;32.80;;;;;;465289;256;2315;-40
2022/01/31 02:41:10;;;;;;;;;;;21.20;32.70;;;;;;465341;256;1507;-40
2022/01/31 02:43:12;;;;;;;;;;;21.30;32.80;;;;;;465712;256;1202;-40
2022/01/31 02:45:13;;;;;;;;;;;21.20;32.70;;;;;;465609;256;1288;-40
2022/01/31 02:47:15;;;;;;;;;;;21.20;32.70;;;;;;465378;256;2128;-40
2022/01/31 02:49:16;;;;;;;;;;;21.20;32.70;;;;;;465456;256;1643;-40
2022/01/31 02:51:21;;;;;;;;;;;21.20;32.70;;;;;;465401;256;1185;-40
2022/01/31 02:53:24;;;;;;;;;;;21.20;32.70;;;;;;465173;256;2405;-40
2022/01/31 02:55:24;;;;;;;;;;;21.20;32.70;;;;;;465330;256;2214;-40
2022/01/31 02:57:25;;;;;;;;;;;21.30;32.80;;;;;;465339;255;1200;-40
2022/01/31 02:59:26;;;;;;;;;;;21.20;32.80;;;;;;465502;255;1054;-40
2022/01/31 03:01:28;;;;;;;;;;;21.20;32.80;;;;;;465474;256;1516;-40
2022/01/31 03:03:29;;;;;;;;;;;21.20;32.80;;;;;;465609;256;1083;-40
2022/01/31 03:05:30;;;;;;;;;;;21.20;32.80;;;;;;465373;255;1264;-40
2022/01/31 03:07:33;;;;;;;;;;;21.30;32.70;;;;;;465417;256;2147;-40
2022/01/31 03:09:33;;;;;;;;;;;21.20;32.70;;;;;;465335;256;2486;-40
2022/01/31 03:11:34;;;;;;;;;;;21.30;32.80;;;;;;465534;256;1173;-40
2022/01/31 03:13:35;;;;;;;;;;;21.20;32.70;;;;;;465848;255;1093;-40
2022/01/31 03:15:37;;;;;;;;;;;21.20;32.70;;;;;;465410;256;1233;-40
2022/01/31 03:17:41;;;;;;;;;;;21.20;32.80;;;;;;465323;255;1191;-40
2022/01/31 03:19:40;;;;;;;;;;;21.20;32.80;;;;;;465240;256;2460;-40
2022/01/31 03:21:41;;;;;;;;;;;21.20;32.80;;;;;;465496;256;1312;-40
2022/01/31 03:23:45;;;;;;;;;;;21.20;32.70;;;;;;465390;256;1077;-40
2022/01/31 03:25:44;;;;;;;;;;;21.20;32.80;;;;;;465623;256;2108;-40
2022/01/31 03:27:45;;;;;;;;;;;21.20;32.80;;;;;;465393;256;2138;-40
2022/01/31 03:29:47;;;;;;;;;;;21.20;32.80;;;;;;465646;255;1064;-40
2022/01/31 03:31:48;;;;;;;;;;;21.20;32.80;;;;;;465434;255;1334;-40
2022/01/31 03:33:49;;;;;;;;;;;21.20;32.80;;;;;;465821;256;1087;-40
2022/01/31 03:35:51;;;;;;;;;;;21.10;32.80;;;;;;465791;256;1152;-40
2022/01/31 03:37:52;;;;;;;;;;;21.10;32.80;;;;;;465834;255;1270;-40
2022/01/31 03:39:53;;;;;;;;;;;21.20;32.80;;;;;;465422;255;1091;-40
2022/01/31 03:41:55;;;;;;;;;;;21.20;32.80;;;;;;465623;255;1427;-40
2022/01/31 03:43:56;;;;;;;;;;;21.20;32.80;;;;;;465554;256;1046;-40
2022/01/31 03:45:57;;;;;;;;;;;21.20;32.80;;;;;;465656;255;1227;-40
2022/01/31 03:48:00;;;;;;;;;;;21.20;32.80;;;;;;465375;256;2131;-40
2022/01/31 03:50:00;;;;;;;;;;;21.20;32.80;;;;;;465570;255;2156;-40
2022/01/31 03:52:01;;;;;;;;;;;21.20;32.70;;;;;;465483;256;1179;-40
2022/01/31 03:54:04;;;;;;;;;;;21.20;32.80;;;;;;465603;256;1070;-40
2022/01/31 03:56:05;;;;;;;;;;;21.10;32.80;;;;;;465689;256;1349;-40
2022/01/31 03:58:06;;;;;;;;;;;21.10;32.80;;;;;;465790;256;1075;-40
2022/01/31 04:00:07;;;;;;;;;;;21.10;32.80;;;;;;465738;256;1144;-40
2022/01/31 04:02:09;;;;;;;;;;;21.10;32.80;;;;;;465309;255;1664;-40
2022/01/31 04:04:11;;;;;;;;;;;21.20;32.80;;;;;;465477;256;1223;-40
2022/01/31 04:06:12;;;;;;;;;;;21.10;32.70;;;;;;465500;255;2206;-40
2022/01/31 04:08:13;;;;;;;;;;;21.20;32.80;;;;;;465680;256;1295;-40
2022/01/31 04:10:15;;;;;;;;;;;21.20;32.80;;;;;;465650;256;1054;-40
2022/01/31 04:12:16;;;;;;;;;;;21.10;32.70;;;;;;465753;256;1261;-40
2022/01/31 04:14:17;;;;;;;;;;;21.10;32.80;;;;;;465858;256;1046;-40
2022/01/31 04:16:19;;;;;;;;;;;21.10;32.80;;;;;;465470;256;1231;-40
2022/01/31 04:18:20;;;;;;;;;;;21.10;32.80;;;;;;465800;256;1276;-40
2022/01/31 04:20:21;;;;;;;;;;;21.20;32.80;;;;;;465387;256;1072;-40
2022/01/31 04:22:25;;;;;;;;;;;21.10;32.80;;;;;;465462;255;1322;-40
2022/01/31 04:24:31;;;;;;;;;;;21.10;32.80;;;;;;465264;256;2390;-40
2022/01/31 04:26:32;;;;;;;;;;;21.10;32.80;;;;;;464896;256;2189;-40
2022/01/31 04:28:31;;;;;;;;;;;21.10;32.80;;;;;;464935;256;2041;-40
2022/01/31 04:30:28;;;;;;;;;;;21.20;32.80;;;;;;465107;256;1893;-40
2022/01/31 04:32:29;;;;;;;;;;;21.20;32.80;;;;;;465256;255;1643;-40
2022/01/31 04:34:31;;;;;;;;;;;21.10;32.80;;;;;;465413;256;1073;-40
2022/01/31 04:36:32;;;;;;;;;;;21.10;32.80;;;;;;465323;256;1153;-40
2022/01/31 04:38:33;;;;;;;;;;;21.10;32.90;;;;;;465618;256;1205;-40
2022/01/31 04:40:34;;;;;;;;;;;21.10;32.90;;;;;;465456;255;1327;-40
2022/01/31 04:42:36;;;;;;;;;;;21.10;32.90;;;;;;465521;256;1219;-40
2022/01/31 04:44:37;;;;;;;;;;;21.10;32.90;;;;;;465675;255;1075;-40
2022/01/31 04:46:40;;;;;;;;;;;21.10;32.90;;;;;;465439;256;2162;-40
2022/01/31 04:48:43;;;;;;;;;;;21.10;32.90;;;;;;465584;256;1206;-40
2022/01/31 04:50:42;;;;;;;;;;;21.10;32.80;;;;;;465233;256;2036;-40
2022/01/31 04:52:43;;;;;;;;;;;21.10;32.80;;;;;;465387;256;1246;-40
2022/01/31 04:54:44;;;;;;;;;;;21.10;32.90;;;;;;465392;256;1203;-40
2022/01/31 04:56:47;;;;;;;;;;;21.10;32.90;;;;;;465472;255;1430;-40
2022/01/31 04:58:47;;;;;;;;;;;21.10;32.90;;;;;;465283;256;2216;-40
2022/01/31 05:00:48;;;;;;;;;;;21.10;32.90;;;;;;465383;256;1268;-39
2022/01/31 05:02:50;;;;;;;;;;;21.10;32.90;;;;;;465467;255;1196;-40
2022/01/31 05:04:51;;;;;;;;;;;21.10;32.90;;;;;;465607;256;1166;-40
2022/01/31 05:06:52;;;;;;;;;;;21.10;32.90;;;;;;465421;256;2206;-40
2022/01/31 05:08:54;;;;;;;;;;;21.10;32.90;;;;;;465617;256;1320;-40
2022/01/31 05:10:55;;;;;;;;;;;21.10;32.80;;;;;;465823;256;1110;-40
2022/01/31 05:12:56;;;;;;;;;;;21.10;32.90;;;;;;465811;256;1192;-40
2022/01/31 05:14:58;;;;;;;;;;;21.10;33.00;;;;;;465350;256;1202;-40
2022/01/31 05:16:59;;;;;;;;;;;21.10;32.90;;;;;;465607;256;1196;-40
2022/01/31 05:19:01;;;;;;;;;;;21.10;32.90;;;;;;465349;256;1072;-40
2022/01/31 05:21:04;;;;;;;;;;;21.10;32.90;;;;;;465373;256;1453;-40
2022/01/31 05:23:04;;;;;;;;;;;21.10;33.00;;;;;;465215;256;2070;-40
2022/01/31 05:25:05;;;;;;;;;;;21.10;33.00;;;;;;465388;256;1038;-40
2022/01/31 05:27:06;;;;;;;;;;;21.10;32.90;;;;;;465339;256;2138;-40
2022/01/31 05:29:07;;;;;;;;;;;21.10;32.90;;;;;;465494;256;1087;-40
2022/01/31 05:31:09;;;;;;;;;;;21.10;32.90;;;;;;465309;256;1275;-40
2022/01/31 05:33:10;;;;;;;;;;;21.10;33.00;;;;;;465452;256;1139;-40
2022/01/31 05:35:11;;;;;;;;;;;21.10;32.90;;;;;;465536;256;1079;-40
2022/01/31 05:37:13;;;;;;;;;;;21.10;32.90;;;;;;465193;255;1369;-40
2022/01/31 05:39:14;;;;;;;;;;;21.10;32.90;;;;;;465309;256;1035;-40
2022/01/31 05:41:19;;;;;;;;;;;21.10;32.90;;;;;;465390;256;1546;-40
2022/01/31 05:43:19;;;;;;;;;;;21.10;32.90;;;;;;465177;256;1758;-40
2022/01/31 05:45:20;;;;;;;;;;;21.00;32.90;;;;;;465317;256;1058;-40
2022/01/31 05:47:21;;;;;;;;;;;21.00;32.90;;;;;;465197;256;2118;-40
2022/01/31 05:49:22;;;;;;;;;;;21.00;32.90;;;;;;465280;256;1051;-40
2022/01/31 05:51:24;;;;;;;;;;;21.00;33.00;;;;;;465348;256;1310;-40
2022/01/31 05:53:25;;;;;;;;;;;21.10;33.00;;;;;;465173;256;1284;-40
2022/01/31 05:55:26;;;;;;;;;;;21.10;33.00;;;;;;465177;256;1102;-40
2022/01/31 05:57:28;;;;;;;;;;;21.10;32.90;;;;;;465134;256;1168;-40
2022/01/31 05:59:29;;;;;;;;;;;21.10;33.00;;;;;;465367;256;1282;-40
2022/01/31 06:01:30;;;;;;;;;;;21.10;33.00;;;;;;465152;256;1292;-40
2022/01/31 06:03:32;;;;;;;;;;;21.10;32.90;;;;;;465378;256;1212;-40
2022/01/31 06:05:33;;;;;;;;;;;21.10;32.90;;;;;;465170;256;1678;-40
2022/01/31 06:07:34;;;;;;;;;;;21.10;33.00;;;;;;465029;256;2142;-40
2022/01/31 06:09:37;;;;;;;;;;;21.10;33.00;;;;;;465200;256;1297;-40
2022/01/31 06:11:37;;;;;;;;;;;21.00;33.00;;;;;;465308;256;2404;-40
2022/01/31 06:13:38;;;;;;;;;;;21.00;33.00;;;;;;465226;256;1153;-40
2022/01/31 06:15:39;;;;;;;;;;;21.00;33.00;;;;;;465269;256;1153;-40
2022/01/31 06:17:41;;;;;;;;;;;21.00;33.10;;;;;;465161;256;1485;-40
2022/01/31 06:19:42;;;;;;;;;;;21.00;33.10;;;;;;465291;256;1235;-40
2022/01/31 06:21:43;;;;;;;;;;;21.00;33.10;;;;;;465208;256;1401;-40
2022/01/31 06:23:45;;;;;;;;;;;20.90;33.10;;;;;;465147;255;1222;-40
2022/01/31 06:25:48;;;;;;;;;;;20.90;33.00;;;;;;465162;255;1125;-40
2022/01/31 06:27:47;;;;;;;;;;;20.90;33.10;;;;;;465121;256;2299;-40
2022/01/31 06:29:49;;;;;;;;;;;20.90;33.10;;;;;;465177;256;1368;-40
2022/01/31 06:31:50;;;;;;;;;;;20.90;33.10;;;;;;465052;256;1548;-40
2022/01/31 06:33:51;;;;;;;;;;;20.90;33.20;;;;;;465064;255;1271;-40
2022/01/31 06:35:53;;;;;;;;;;;20.90;33.10;;;;;;465151;256;1403;-40
2022/01/31 06:37:54;;;;;;;;;;;20.90;33.20;;;;;;465102;256;1095;-40
2022/01/31 06:39:55;;;;;;;;;;;20.90;33.20;;;;;;465349;255;1046;-40
2022/01/31 06:41:57;;;;;;;;;;;20.90;33.20;;;;;;465236;256;1332;-40
2022/01/31 06:43:58;;;;;;;;;;;20.90;33.20;;;;;;465338;255;1072;-40
2022/01/31 06:45:59;;;;;;;;;;;20.80;33.20;;;;;;465108;255;1149;-40
2022/01/31 06:48:01;;;;;;;;;;;20.90;33.20;;;;;;465222;256;2206;-40
2022/01/31 06:50:04;;;;;;;;;;;20.90;33.20;;;;;;465140;256;1077;-40
2022/01/31 06:52:03;;;;;;;;;;;20.90;33.20;;;;;;464799;256;1877;-40
2022/01/31 06:54:06;;;;;;;;;;;20.90;33.20;;;;;;464988;256;1083;-40
2022/01/31 06:56:06;;;;;;;;;;;20.80;33.20;;;;;;464857;256;2165;-40
2022/01/31 06:58:07;;;;;;;;;;;20.90;33.20;;;;;;464982;256;1196;-40
2022/01/31 07:00:08;;;;;;;;;;;20.80;33.20;;;;;;465108;256;1080;-40
2022/01/31 07:02:10;;;;;;;;;;;20.80;33.20;;;;;;464923;256;1169;-40
2022/01/31 07:04:11;;;;;;;;;;;20.90;33.20;;;;;;464999;256;1131;-40
2022/01/31 07:06:12;;;;;;;;;;;20.90;33.20;;;;;;464847;256;1759;-40
2022/01/31 07:08:14;;;;;;;;;;;20.90;33.20;;;;;;464795;256;2210;-40
2022/01/31 07:10:15;;;;;;;;;;;20.90;33.10;;;;;;464853;256;1285;-40
2022/01/31 07:12:17;;;;;;;;;;;20.90;33.10;;;;;;464968;256;1232;-40
2022/01/31 07:14:30;;;;;;;;;;;20.90;33.20;;;;;;464811;256;2830;-40
2022/01/31 07:16:31;;;;;;;;;;;20.90;33.10;;;;;;464904;256;1581;-40
2022/01/31 07:18:33;;;;;;;;;;;20.90;33.10;;;;;;464835;256;1240;-40
2022/01/31 07:20:38;;;;;;;;;;;20.90;33.10;;;;;;464793;256;2129;-40
2022/01/31 07:22:38;;;;;;;;;;;20.90;33.10;;;;;;464754;256;1743;-40
2022/01/31 07:24:51;;;;;;;;;;;20.90;33.10;;;;;;464828;256;1963;-40
2022/01/31 07:26:49;;;;;;;;;;;20.90;33.10;;;;;;464657;256;2141;-40
2022/01/31 07:28:50;;;;;;;;;;;20.80;33.10;;;;;;464889;256;2201;-40
2022/01/31 07:30:51;;;;;;;;;;;20.80;33.10;;;;;;464712;256;1224;-40
2022/01/31 07:32:53;;;;;;;;;;;20.90;33.00;;;;;;464861;256;1281;-40
2022/01/31 07:34:55;;;;;;;;;;;20.90;32.90;;;;;;464934;256;1226;-40
2022/01/31 07:36:55;;;;;;;;;;;20.90;32.90;;;;;;464881;256;2253;-40
2022/01/31 07:38:57;;;;;;;;;;;20.90;32.90;;;;;;465024;256;1064;-40
2022/01/31 07:40:59;;;;;;;;;;;20.90;32.90;;;;;;464798;256;1362;-40
2022/01/31 07:42:59;;;;;;;;;;;20.90;32.90;;;;;;464804;256;2215;-40
2022/01/31 07:45:01;;;;;;;;;;;20.90;32.90;;;;;;464893;256;1099;-40
2022/01/31 07:47:02;;;;;;;;;;;20.90;32.80;;;;;;464843;256;1590;-40
2022/01/31 07:49:03;;;;;;;;;;;20.90;32.80;;;;;;465068;256;2115;-40
2022/01/31 07:51:04;;;;;;;;;;;20.90;32.80;;;;;;464555;256;1640;-40
2022/01/31 07:53:06;;;;;;;;;;;21.00;32.80;;;;;;464657;256;1259;-40
2022/01/31 07:55:07;;;;;;;;;;;20.90;32.70;;;;;;464751;256;1072;-40
2022/01/31 07:57:08;;;;;;;;;;;20.90;32.80;;;;;;464699;256;1350;-40
2022/01/31 07:59:10;;;;;;;;;;;20.90;32.70;;;;;;464648;256;1091;-40
2022/01/31 08:01:11;;;;;;;;;;;20.90;32.70;;;;;;464550;255;1512;-40
2022/01/31 08:03:12;;;;;;;;;;;20.90;32.70;;;;;;464575;256;1214;-40
2022/01/31 08:05:14;;;;;;;;;;;20.90;32.60;;;;;;464665;256;1218;-40
2022/01/31 08:07:16;;;;;;;;;;;21.00;32.60;;;;;;464536;256;1257;-40
2022/01/31 08:09:16;;;;;;;;;;;21.00;32.70;;;;;;464439;256;2420;-40
2022/01/31 08:11:18;;;;;;;;;;;21.00;32.60;;;;;;464439;255;1583;-40
2022/01/31 08:13:19;;;;;;;;;;;21.00;32.60;;;;;;464398;256;1084;-40
2022/01/31 08:15:25;;;;;;;;;;;21.00;32.50;;;;;;464322;255;1258;-40
2022/01/31 08:17:22;;;;;;;;;;;21.00;32.60;;;;;;464087;256;2094;-40
2022/01/31 08:19:23;;;;;;;;;;;21.00;32.50;;;;;;464478;256;1314;-40
2022/01/31 08:21:25;;;;;;;;;;;21.00;32.40;;;;;;464459;255;1457;-40
2022/01/31 08:23:26;;;;;;;;;;;21.00;32.50;;;;;;464563;255;1078;-40
2022/01/31 08:25:28;;;;;;;;;;;21.00;32.50;;;;;;464657;256;1420;-40
2022/01/31 08:27:29;;;;;;;;;;;21.00;32.40;;;;;;464377;256;2143;-40
2022/01/31 08:29:33;;;;;;;;;;;21.00;32.30;;;;;;464611;256;2209;-39
2022/01/31 08:31:34;;;;;;;;;;;21.00;32.40;;;;;;464327;256;2435;-40
2022/01/31 08:33:37;;;;;;;;;;;21.10;32.40;;;;;;464390;256;1499;-40
2022/01/31 08:35:48;;;;;;;;;;;21.10;32.40;;;;;;464581;256;2130;-40
2022/01/31 08:37:49;;;;;;;;;;;21.10;32.40;;;;;;464711;256;1287;-40
2022/01/31 08:39:51;;;;;;;;;;;21.00;32.40;;;;;;464618;256;1090;-40
2022/01/31 08:41:52;;;;;;;;;;;21.00;32.30;;;;;;464399;256;1203;-40
2022/01/31 08:43:53;;;;;;;;;;;21.00;32.30;;;;;;464447;256;1273;-40
2022/01/31 08:45:56;;;;;;;;;;;21.00;32.30;;;;;;464514;256;1211;-40
2022/01/31 08:47:56;;;;;;;;;;;21.00;32.30;;;;;;464501;256;2206;-40
2022/01/31 08:49:57;;;;;;;;;;;21.10;32.30;;;;;;464512;256;1256;-40
2022/01/31 08:51:59;;;;;;;;;;;21.10;32.20;;;;;;464582;256;1292;-40
2022/01/31 08:54:00;;;;;;;;;;;21.10;32.20;;;;;;464363;256;1211;-40
2022/01/31 08:56:01;;;;;;;;;;;21.10;32.20;;;;;;464532;256;1274;-40
2022/01/31 08:58:05;;;;;;;;;;;21.10;32.20;;;;;;464562;255;1232;-40
2022/01/31 09:00:06;;;;;;;;;;;21.10;32.30;;;;;;464469;256;1765;-40
2022/01/31 09:02:10;;;;;;;;;;;21.10;32.30;;;;;;464416;256;2129;-40
2022/01/31 09:04:09;;;;;;;;;;;21.10;32.20;;;;;;464195;256;2253;-40
2022/01/31 09:06:08;;;;;;;;;;;21.10;32.20;;;;;;464397;256;2156;-40
2022/01/31 09:08:09;;;;;;;;;;;21.10;32.10;;;;;;464698;256;2143;-40
2022/01/31 09:10:11;;;;;;;;;;;21.10;32.10;;;;;;464603;256;1102;-40
2022/01/31 09:12:16;;;;;;;;;;;21.10;32.10;;;;;;464691;256;1213;-40
2022/01/31 09:14:14;;;;;;;;;;;21.10;32.20;;;;;;464350;256;2695;-40
2022/01/31 09:16:15;;;;;;;;;;;21.10;32.20;;;;;;464456;256;1433;-40
2022/01/31 09:18:16;;;;;;;;;;;21.10;32.20;;;;;;464432;256;1122;-40
2022/01/31 09:20:17;;;;;;;;;;;21.10;32.20;;;;;;464501;255;1226;-40
2022/01/31 09:22:19;;;;;;;;;;;21.10;32.20;;;;;;464917;255;1250;-40
2022/01/31 09:24:20;;;;;;;;;;;21.10;32.20;;;;;;465309;255;1076;-40
2022/01/31 09:26:22;;;;;;;;;;;21.10;32.10;;;;;;464669;255;1272;-40
2022/01/31 09:28:23;;;;;;;;;;;21.10;32.20;;;;;;464520;256;2197;-40
2022/01/31 09:30:26;;;;;;;;;;;21.10;32.20;;;;;;464448;256;1395;-40
2022/01/31 09:32:25;;;;;;;;;;;21.10;32.20;;;;;;464548;256;2137;-40
2022/01/31 09:34:27;;;;;;;;;;;21.10;32.10;;;;;;465267;256;1139;-40
2022/01/31 09:36:28;;;;;;;;;;;21.10;32.20;;;;;;464815;256;1205;-40
2022/01/31 09:38:29;;;;;;;;;;;21.10;32.20;;;;;;464814;256;1182;-40
2022/01/31 09:40:31;;;;;;;;;;;21.10;32.10;;;;;;464586;256;1198;-40
2022/01/31 09:42:38;;;;;;;;;;;21.10;32.20;;;;;;464728;256;1171;-40
2022/01/31 09:44:43;;;;;;;;;;;21.10;32.20;;;;;;464267;256;2062;-40
2022/01/31 09:48:51;;;;;;;;;;;21.10;32.10;;;;;;465215;256;2209;-40
2022/01/31 09:50:50;;;;;;;;;;;21.10;32.10;;;;;;464790;256;2366;-40
2022/01/31 09:52:51;;;;;;;;;;;21.10;32.10;;;;;;464661;256;1212;-40
2022/01/31 09:54:52;;;;;;;;;;;21.10;32.10;;;;;;464676;255;1235;-40
2022/01/31 09:56:54;;;;;;;;;;;21.00;32.20;;;;;;464582;253;1684;-40
2022/01/31 09:58:55;;;;;;;;;;;21.10;32.20;;;;;;464646;256;1213;-40
2022/01/31 10:00:56;;;;;;;;;;;21.10;32.10;;;;;;464647;255;1487;-40
2022/01/31 10:02:58;;;;;;;;;;;21.10;32.10;;;;;;464525;256;1462;-40
2022/01/31 10:04:59;;;;;;;;;;;21.10;32.10;;;;;;464550;256;1311;-40
2022/01/31 10:07:00;;;;;;;;;;;21.10;32.10;;;;;;464677;255;1252;-40
2022/01/31 10:09:02;;;;;;;;;;;21.00;32.20;;;;;;464632;256;2190;-40
2022/01/31 10:11:11;;;;;;;;;;;21.10;32.20;;;;;;464551;256;1242;-40
2022/01/31 10:17:43;;;;;;;;;;;21.10;32.20;;;;;;464552;256;1258;-40
2022/01/31 10:19:44;;;;;;;;;;;21.10;32.10;;;;;;464550;256;1070;-40
2022/01/31 10:21:45;;;;;;;;;;;21.10;32.20;;;;;;464471;256;1353;-40
2022/01/31 10:23:47;;;;;;;;;;;21.10;32.20;;;;;;465127;256;1074;-40
2022/01/31 10:25:48;;;;;;;;;;;21.00;32.20;;;;;;464526;256;1480;-40
2022/01/31 10:27:49;;;;;;;;;;;21.10;32.20;;;;;;464625;256;1258;-40
2022/01/31 10:29:51;;;;;;;;;;;21.10;32.20;;;;;;464696;256;2194;-40
2022/01/31 10:31:52;;;;;;;;;;;21.10;32.20;;;;;;464515;255;1501;-40
2022/01/31 10:33:53;;;;;;;;;;;21.00;32.20;;;;;;464473;255;1059;-40
2022/01/31 10:35:55;;;;;;;;;;;21.10;32.20;;;;;;464876;255;1321;-40
2022/01/31 10:37:56;;;;;;;;;;;21.10;32.10;;;;;;466517;254;1030;-40
2022/01/31 10:44:59;;;;;;;;;;;21.10;32.20;;;;;;465930;255;1261;-40
2022/01/31 10:51:57;;;;;;;;;;;21.10;32.20;;;;;;465911;254;1274;-40
2022/01/31 10:53:54;;;;;;;;;;;21.00;32.10;;;;;;465589;255;2566;-39
2022/01/31 10:55:51;;;;;;;;;;;21.10;32.10;;;;;;465723;255;1702;-40
2022/01/31 10:57:52;;;;;;;;;;;21.00;32.20;;;;;;465655;254;1276;-40
2022/01/31 10:59:55;;;;;;;;;;;21.00;32.20;;;;;;465905;254;1228;-40
2022/01/31 11:01:55;;;;;;;;;;;21.00;32.20;;;;;;465814;254;2126;-40
2022/01/31 11:03:56;;;;;;;;;;;21.00;32.20;;;;;;466051;254;1256;-40
2022/01/31 11:05:58;;;;;;;;;;;21.00;32.20;;;;;;465849;254;1455;-40
2022/01/31 11:07:59;;;;;;;;;;;21.00;32.20;;;;;;466326;254;1244;-40
2022/01/31 11:10:00;;;;;;;;;;;21.10;32.20;;;;;;465812;254;2209;-40
2022/01/31 11:12:01;;;;;;;;;;;21.10;32.10;;;;;;466030;254;1180;-40
2022/01/31 11:14:03;;;;;;;;;;;21.00;32.10;;;;;;465874;254;1160;-40
2022/01/31 11:16:06;;;;;;;;;;;21.10;32.20;;;;;;465765;254;1438;-40
2022/01/31 11:18:06;;;;;;;;;;;21.10;32.10;;;;;;465671;255;1773;-40
2022/01/31 11:20:08;;;;;;;;;;;21.10;32.10;;;;;;465918;254;1081;-40
2022/01/31 11:22:09;;;;;;;;;;;21.10;32.00;;;;;;465611;254;1588;-40
2022/01/31 11:24:17;;;;;;;;;;;21.10;32.10;;;;;;465711;254;1216;-40
2022/01/31 11:26:13;;;;;;;;;;;21.10;32.00;;;;;;465590;255;1974;-40
2022/01/31 11:28:14;;;;;;;;;;;21.10;32.00;;;;;;465866;254;1508;-40
2022/01/31 11:30:15;;;;;;;;;;;21.10;32.10;;;;;;465917;254;2201;-40
2022/01/31 11:32:17;;;;;;;;;;;21.10;32.10;;;;;;465751;254;1208;-40
2022/01/31 11:34:18;;;;;;;;;;;21.10;32.10;;;;;;465987;254;1065;-40
2022/01/31 11:36:19;;;;;;;;;;;21.10;32.10;;;;;;465837;254;1620;-40
2022/01/31 11:38:21;;;;;;;;;;;21.10;32.10;;;;;;466500;254;1122;-40
2022/01/31 11:40:22;;;;;;;;;;;21.10;32.10;;;;;;465816;254;1278;-40
2022/01/31 11:42:23;;;;;;;;;;;21.10;32.10;;;;;;466077;254;1540;-40
2022/01/31 11:44:25;;;;;;;;;;;21.00;32.10;;;;;;465880;254;1227;-40
2022/01/31 11:46:26;;;;;;;;;;;21.00;32.20;;;;;;465751;254;1172;-40
2022/01/31 11:48:29;;;;;;;;;;;21.00;32.20;;;;;;465722;254;1118;-40
2022/01/31 11:50:29;;;;;;;;;;;21.00;32.20;;;;;;465905;254;2209;-40
2022/01/31 11:52:30;;;;;;;;;;;21.00;32.20;;;;;;465876;254;1586;-40
2022/01/31 11:54:31;;;;;;;;;;;21.00;32.20;;;;;;465835;254;1114;-40
2022/01/31 11:56:33;;;;;;;;;;;21.00;32.30;;;;;;465976;254;1575;-40
2022/01/31 11:58:34;;;;;;;;;;;21.00;32.20;;;;;;465851;254;1136;-40
2022/01/31 12:00:35;;;;;;;;;;;21.00;32.20;;;;;;465885;254;1475;-40
2022/01/31 12:02:37;;;;;;;;;;;21.00;32.20;;;;;;465873;254;1226;-40
2022/01/31 12:04:38;;;;;;;;;;;21.00;32.30;;;;;;465857;254;1291;-40
2022/01/31 12:06:39;;;;;;;;;;;21.00;32.30;;;;;;465566;254;1173;-40
2022/01/31 12:08:43;;;;;;;;;;;21.00;32.30;;;;;;465620;254;1085;-40
2022/01/31 12:10:44;;;;;;;;;;;21.00;32.30;;;;;;465559;254;2202;-40
2022/01/31 12:12:49;;;;;;;;;;;20.90;32.30;;;;;;465762;255;2174;-40
2022/01/31 12:14:52;;;;;;;;;;;20.90;32.30;;;;;;465617;255;2194;-40